createdAt,value
2023-02-05T00:00:35.659Z,102868.56
2023-02-05T00:03:05.585Z,102865.97
2023-02-05T00:05:34.347Z,102859.88
2023-02-05T00:08:02.964Z,102859.84
2023-02-05T00:10:31.480Z,102864.94
2023-02-05T00:13:00.045Z,102863.84
2023-02-05T00:15:28.921Z,102862.91
2023-02-05T00:17:57.492Z,102862.78
2023-02-05T00:20:28.620Z,102855.06
2023-02-05T00:22:57.105Z,102855.94
2023-02-05T00:25:25.390Z,102852.50
2023-02-05T00:27:54.037Z,102841.44
2023-02-05T00:30:22.752Z,102839.00
2023-02-05T00:32:51.291Z,102840.84
2023-02-05T00:35:20.309Z,102840.97
2023-02-05T00:37:50.143Z,102834.13
2023-02-05T00:40:20.009Z,102833.28
2023-02-05T00:42:48.965Z,102835.88
2023-02-05T00:45:17.391Z,102825.50
2023-02-05T00:47:45.604Z,102834.03
2023-02-05T00:50:14.145Z,102832.22
2023-02-05T00:52:42.774Z,102828.69
2023-02-05T00:55:12.366Z,102828.59
2023-02-05T00:57:41.164Z,102824.16
2023-02-05T01:00:11.635Z,102830.97
2023-02-05T01:02:40.186Z,102830.00
2023-02-05T01:05:09.352Z,102821.25
2023-02-05T01:07:37.994Z,102810.88
2023-02-05T01:10:07.642Z,102809.22
2023-02-05T01:12:37.377Z,102811.94
2023-02-05T01:15:09.106Z,102808.56
2023-02-05T01:17:37.343Z,102806.13
2023-02-05T01:20:06.866Z,102802.84
2023-02-05T01:22:35.503Z,102792.56
2023-02-05T01:25:04.305Z,102794.34
2023-02-05T01:27:33.877Z,102792.72
2023-02-05T01:30:04.391Z,102798.00
2023-02-05T01:32:33.043Z,102784.25
2023-02-05T01:35:01.285Z,102786.03
2023-02-05T01:37:29.601Z,102790.44
2023-02-05T01:39:58.910Z,102784.41
2023-02-05T01:42:29.244Z,102787.84
2023-02-05T01:46:08.047Z,102792.81
2023-02-05T01:48:43.455Z,102790.09
2023-02-05T01:51:15.414Z,102790.91
2023-02-05T01:53:46.515Z,102787.50
2023-02-05T01:56:21.374Z,102790.22
2023-02-05T01:58:55.598Z,102781.69
2023-02-05T02:01:25.124Z,102772.25
2023-02-05T02:03:58.314Z,102758.41
2023-02-05T02:06:26.867Z,102748.91
2023-02-05T02:08:55.430Z,102741.19
2023-02-05T02:11:27.629Z,102737.81
2023-02-05T02:14:00.123Z,102733.56
2023-02-05T02:16:30.006Z,102735.44
2023-02-05T02:19:00.330Z,102741.53
2023-02-05T02:22:12.016Z,102744.94
2023-02-05T02:25:33.754Z,102741.53
2023-02-05T02:28:10.751Z,102741.53
2023-02-05T02:30:44.939Z,102741.41
2023-02-05T02:33:21.986Z,102742.22
2023-02-05T02:36:00.454Z,102739.63
2023-02-05T02:38:34.170Z,102734.31
2023-02-05T02:41:12.663Z,102729.09
2023-02-05T02:43:51.135Z,102724.72
2023-02-05T02:46:25.872Z,102718.63
2023-02-05T02:48:58.335Z,102718.63
2023-02-05T02:51:29.918Z,102720.41
2023-02-05T02:54:01.176Z,102717.94
2023-02-05T02:56:32.120Z,102714.50
2023-02-05T02:59:07.491Z,102715.44
2023-02-05T03:01:46.919Z,102707.78
2023-02-05T03:04:24.995Z,102712.28
2023-02-05T03:06:58.049Z,102711.50
2023-02-05T03:09:33.362Z,102708.06
2023-02-05T03:12:01.973Z,102696.84
2023-02-05T03:14:32.347Z,102691.63
2023-02-05T03:17:02.751Z,102689.88
2023-02-05T03:19:33.018Z,102686.41
2023-02-05T03:22:05.702Z,102681.16
2023-02-05T03:24:34.346Z,102688.03
2023-02-05T03:27:02.996Z,102681.03
2023-02-05T03:29:38.883Z,102674.09
2023-02-05T03:32:28.057Z,102672.25
2023-02-05T03:35:14.682Z,102686.97
2023-02-05T03:37:57.206Z,102692.97
2023-02-05T03:40:39.133Z,102692.97
2023-02-05T03:43:17.665Z,102694.75
2023-02-05T03:45:59.333Z,102687.00
2023-02-05T03:48:48.474Z,102682.69
2023-02-05T03:51:33.911Z,102681.88
2023-02-05T03:54:12.817Z,102674.09
2023-02-05T03:56:52.906Z,102680.94
2023-02-05T03:59:23.050Z,102683.59
2023-02-05T04:01:54.724Z,102682.69
2023-02-05T04:04:23.447Z,102674.91
2023-02-05T04:06:54.323Z,102677.41
2023-02-05T04:09:23.818Z,102673.88
2023-02-05T04:11:53.511Z,102675.63
2023-02-05T04:14:22.682Z,102681.72
2023-02-05T04:16:54.074Z,102693.03
2023-02-05T04:19:25.095Z,102692.28
2023-02-05T04:21:55.568Z,102689.78
2023-02-05T04:24:25.184Z,102692.47
2023-02-05T04:26:54.353Z,102687.31
2023-02-05T04:29:22.877Z,102697.88
2023-02-05T04:31:54.880Z,102705.69
2023-02-05T04:34:23.116Z,102698.00
2023-02-05T04:36:51.810Z,102687.63
2023-02-05T04:39:20.124Z,102688.66
2023-02-05T04:41:48.735Z,102697.34
2023-02-05T04:44:16.943Z,102691.34
2023-02-05T04:46:45.275Z,102704.44
2023-02-05T04:49:14.867Z,102701.00
2023-02-05T04:51:43.390Z,102694.16
2023-02-05T04:54:12.177Z,102694.06
2023-02-05T04:56:40.946Z,102697.44
2023-02-05T04:59:09.558Z,102690.41
2023-02-05T05:01:38.155Z,102681.66
2023-02-05T05:04:06.706Z,102676.34
2023-02-05T05:06:36.261Z,102679.69
2023-02-05T05:09:04.939Z,102672.66
2023-02-05T05:11:33.454Z,102670.03
2023-02-05T05:14:01.983Z,102668.25
2023-02-05T05:16:30.467Z,102669.09
2023-02-05T05:18:58.731Z,102663.91
2023-02-05T05:21:27.213Z,102665.66
2023-02-05T05:23:56.792Z,102672.66
2023-02-05T05:26:25.304Z,102681.34
2023-02-05T05:28:55.120Z,102674.50
2023-02-05T05:31:24.361Z,102680.66
2023-02-05T05:33:53.537Z,102676.25
2023-02-05T05:36:22.034Z,102685.88
2023-02-05T05:38:50.540Z,102692.91
2023-02-05T05:41:41.341Z,102688.53
2023-02-05T05:44:10.701Z,102684.22
2023-02-05T05:46:40.432Z,102681.56
2023-02-05T05:49:08.979Z,102681.56
2023-02-05T05:51:37.693Z,102678.94
2023-02-05T05:54:06.183Z,102678.03
2023-02-05T05:56:36.216Z,102677.97
2023-02-05T05:59:05.193Z,102681.47
2023-02-05T06:01:33.942Z,102666.72
2023-02-05T06:04:04.313Z,102662.34
2023-02-05T06:06:33.021Z,102660.56
2023-02-05T06:09:01.556Z,102674.50
2023-02-05T06:11:30.092Z,102665.00
2023-02-05T06:13:59.778Z,102672.00
2023-02-05T06:16:28.093Z,102683.34
2023-02-05T06:18:56.907Z,102685.97
2023-02-05T06:21:25.368Z,102686.84
2023-02-05T06:23:53.880Z,102692.94
2023-02-05T06:26:22.366Z,102690.28
2023-02-05T06:28:51.219Z,102695.50
2023-02-05T06:31:21.013Z,102692.81
2023-02-05T06:33:49.556Z,102686.81
2023-02-05T06:36:18.054Z,102679.91
2023-02-05T06:38:46.580Z,102681.66
2023-02-05T06:41:14.758Z,102686.84
2023-02-05T06:43:43.322Z,102672.03
2023-02-05T06:46:12.463Z,102662.19
2023-02-05T06:48:42.047Z,102667.00
2023-02-05T06:51:10.609Z,102654.66
2023-02-05T06:53:39.121Z,102649.13
2023-02-05T06:56:08.079Z,102647.19
2023-02-05T06:58:36.582Z,102647.78
2023-02-05T07:01:05.989Z,102646.75
2023-02-05T07:03:34.866Z,102649.19
2023-02-05T07:06:06.503Z,102647.41
2023-02-05T07:08:35.480Z,102640.38
2023-02-05T07:11:04.214Z,102645.59
2023-02-05T07:13:32.503Z,102651.59
2023-02-05T07:16:05.243Z,102654.25
2023-02-05T07:18:34.298Z,102655.13
2023-02-05T07:21:08.355Z,102661.16
2023-02-05T07:23:37.089Z,102673.28
2023-02-05T07:26:09.628Z,102670.78
2023-02-05T07:28:38.396Z,102667.38
2023-02-05T07:31:08.141Z,102658.81
2023-02-05T07:33:37.351Z,102654.56
2023-02-05T07:36:09.270Z,102657.25
2023-02-05T07:38:38.728Z,102661.59
2023-02-05T07:41:08.130Z,102646.00
2023-02-05T07:43:36.544Z,102638.22
2023-02-05T07:46:07.808Z,102637.34
2023-02-05T07:48:36.818Z,102637.28
2023-02-05T07:51:07.556Z,102635.53
2023-02-05T07:53:36.107Z,102640.66
2023-02-05T07:56:05.058Z,102636.38
2023-02-05T07:58:33.628Z,102638.97
2023-02-05T08:01:02.982Z,102639.88
2023-02-05T08:03:31.836Z,102646.84
2023-02-05T08:06:00.796Z,102633.91
2023-02-05T08:08:30.500Z,102632.25
2023-02-05T08:11:00.945Z,102638.44
2023-02-05T08:13:30.345Z,102635.84
2023-02-05T08:16:01.509Z,102629.03
2023-02-05T08:18:30.115Z,102627.31
2023-02-05T08:20:58.647Z,102633.47
2023-02-05T08:23:27.795Z,102630.91
2023-02-05T08:25:59.409Z,102628.38
2023-02-05T08:28:29.235Z,102623.25
2023-02-05T08:30:59.601Z,102613.84
2023-02-05T08:33:28.225Z,102606.97
2023-02-05T08:35:58.429Z,102618.28
2023-02-05T08:38:26.619Z,102616.63
2023-02-05T08:40:54.799Z,102614.94
2023-02-05T08:43:24.910Z,102606.34
2023-02-05T08:45:53.477Z,102601.25
2023-02-05T08:48:22.944Z,102599.56
2023-02-05T08:50:51.800Z,102600.50
2023-02-05T08:53:21.776Z,102598.88
2023-02-05T08:55:56.962Z,102591.16
2023-02-05T08:58:26.921Z,102592.09
2023-02-05T09:01:00.628Z,102594.81
2023-02-05T09:03:30.497Z,102594.91
2023-02-05T09:05:59.288Z,102596.75
2023-02-05T09:08:31.122Z,102593.31
2023-02-05T09:10:59.829Z,102587.34
2023-02-05T09:13:29.715Z,102591.75
2023-02-05T09:15:57.989Z,102596.09
2023-02-05T09:18:26.518Z,102588.31
2023-02-05T09:20:55.218Z,102596.06
2023-02-05T09:23:23.745Z,102590.00
2023-02-05T09:25:52.286Z,102582.25
2023-02-05T09:28:20.888Z,102580.50
2023-02-05T09:30:51.610Z,102585.72
2023-02-05T09:33:20.380Z,102583.13
2023-02-05T09:35:48.889Z,102583.13
2023-02-05T09:38:18.600Z,102577.91
2023-02-05T09:40:59.253Z,102575.28
2023-02-05T09:43:46.885Z,102572.72
2023-02-05T09:46:27.495Z,102566.66
2023-02-05T09:49:01.939Z,102565.03
2023-02-05T09:51:35.989Z,102569.31
2023-02-05T09:54:16.195Z,102573.56
2023-02-05T09:56:46.753Z,102570.13
2023-02-05T09:59:18.215Z,102560.66
2023-02-05T10:01:52.902Z,102562.41
2023-02-05T10:04:21.527Z,102557.22
2023-02-05T10:07:20.656Z,102555.44
2023-02-05T10:10:24.559Z,102564.13
2023-02-05T10:13:24.839Z,102560.72
2023-02-05T10:16:15.084Z,102559.00
2023-02-05T10:19:09.974Z,102555.56
2023-02-05T10:22:02.424Z,102558.13
2023-02-05T10:25:05.663Z,102551.16
2023-02-05T10:27:44.493Z,102546.00
2023-02-05T10:30:22.257Z,102552.13
2023-02-05T10:32:58.643Z,102547.03
2023-02-05T10:35:37.541Z,102536.72
2023-02-05T10:38:11.518Z,102533.31
2023-02-05T10:40:44.024Z,102532.44
2023-02-05T10:43:22.483Z,102530.78
2023-02-05T10:45:52.418Z,102533.56
2023-02-05T10:48:40.696Z,102535.31
2023-02-05T10:51:15.999Z,102517.19
2023-02-05T10:53:45.095Z,102519.78
2023-02-05T10:56:19.782Z,102512.88
2023-02-05T10:58:54.043Z,102509.41
2023-02-05T11:01:24.928Z,102502.47
2023-02-05T11:03:58.929Z,102502.38
2023-02-05T11:06:33.513Z,102497.09
2023-02-05T11:09:01.589Z,102498.66
2023-02-05T11:11:32.914Z,102501.22
2023-02-05T11:14:05.500Z,102488.28
2023-02-05T11:16:40.236Z,102487.47
2023-02-05T11:19:21.484Z,102481.41
2023-02-05T11:21:55.095Z,102484.03
2023-02-05T11:24:28.485Z,102474.63
2023-02-05T11:27:32.007Z,102479.94
2023-02-05T11:30:52.177Z,102484.38
2023-02-05T11:33:31.206Z,102480.00
2023-02-05T11:36:03.475Z,102474.81
2023-02-05T11:38:45.399Z,102467.88
2023-02-05T11:41:26.486Z,102469.63
2023-02-05T11:43:56.336Z,102464.50
2023-02-05T11:46:27.165Z,102455.78
2023-02-05T11:49:01.836Z,102450.59
2023-02-05T11:51:40.113Z,102457.53
2023-02-05T11:54:22.039Z,102453.19
2023-02-05T11:57:28.223Z,102464.59
2023-02-05T11:59:58.678Z,102455.94
2023-02-05T12:02:33.882Z,102460.34
2023-02-05T12:05:14.223Z,102457.78
2023-02-05T12:07:48.938Z,102467.44
2023-02-05T12:10:26.693Z,102471.78
2023-02-05T12:13:10.127Z,102457.06
2023-02-05T12:15:46.044Z,102461.44
2023-02-05T12:18:29.458Z,102463.19
2023-02-05T12:21:14.246Z,102456.28
2023-02-05T12:24:17.064Z,102451.06
2023-02-05T12:26:50.163Z,102448.56
2023-02-05T12:29:39.437Z,102450.31
2023-02-05T12:32:22.154Z,102441.78
2023-02-05T12:35:13.853Z,102437.50
2023-02-05T12:37:50.196Z,102434.91
2023-02-05T12:40:45.073Z,102435.81
2023-02-05T12:43:32.159Z,102438.53
2023-02-05T12:46:20.620Z,102432.53
2023-02-05T12:49:10.121Z,102427.25
2023-02-05T12:51:53.789Z,102423.81
2023-02-05T12:54:57.776Z,102429.97
2023-02-05T12:57:34.037Z,102427.44
2023-02-05T13:00:14.307Z,102424.81
2023-02-05T13:02:55.463Z,102425.69
2023-02-05T13:05:32.460Z,102417.09
2023-02-05T13:08:07.731Z,102423.13
2023-02-05T13:10:48.085Z,102413.66
2023-02-05T13:13:21.992Z,102418.91
2023-02-05T13:16:02.368Z,102417.25
2023-02-05T13:18:35.245Z,102417.34
2023-02-05T13:21:26.324Z,102418.31
2023-02-05T13:24:20.419Z,102422.69
2023-02-05T13:27:12.448Z,102421.91
2023-02-05T13:29:51.240Z,102421.97
2023-02-05T13:32:25.274Z,102422.91
2023-02-05T13:34:56.543Z,102421.25
2023-02-05T13:37:52.749Z,102410.78
2023-02-05T13:40:44.910Z,102419.47
2023-02-05T13:44:19.571Z,102412.44
2023-02-05T13:47:34.184Z,102410.75
2023-02-05T13:50:26.480Z,102406.44
2023-02-05T13:53:24.868Z,102404.69
2023-02-05T13:56:18.218Z,102402.03
2023-02-05T13:58:51.277Z,102410.78
2023-02-05T14:01:25.295Z,102407.38
2023-02-05T14:04:00.409Z,102417.78
2023-02-05T14:06:32.962Z,102414.38
2023-02-05T14:09:06.406Z,102421.41
2023-02-05T14:11:53.057Z,102421.47
2023-02-05T14:14:32.031Z,102412.88
2023-02-05T14:17:01.665Z,102411.22
2023-02-05T14:19:58.531Z,102410.41
2023-02-05T14:22:41.326Z,102413.03
2023-02-05T14:26:01.602Z,102410.47
2023-02-05T14:28:47.951Z,102420.06
2023-02-05T14:31:58.453Z,102427.06
2023-02-05T14:34:48.515Z,102433.16
2023-02-05T14:37:39.136Z,102424.53
2023-02-05T14:40:28.701Z,102427.94
2023-02-05T14:43:09.907Z,102433.16
2023-02-05T14:45:46.087Z,102435.75
2023-02-05T14:48:28.195Z,102439.22
2023-02-05T14:51:06.283Z,102446.09
2023-02-05T14:53:39.819Z,102440.03
2023-02-05T14:56:08.816Z,102442.69
2023-02-05T14:58:40.779Z,102452.22
2023-02-05T15:01:44.637Z,102454.84
2023-02-05T15:04:34.694Z,102459.19
2023-02-05T15:07:12.256Z,102465.31
2023-02-05T15:09:46.667Z,102471.41
2023-02-05T15:12:53.822Z,102474.00
2023-02-05T15:15:33.349Z,102482.63
2023-02-05T15:18:14.698Z,102477.41
2023-02-05T15:20:49.248Z,102484.41
2023-02-05T15:23:40.844Z,102479.19
2023-02-05T15:26:22.185Z,102481.81
2023-02-05T15:29:01.026Z,102490.50
2023-02-05T15:31:38.014Z,102493.13
2023-02-05T15:34:37.163Z,102489.63
2023-02-05T15:37:16.691Z,102493.97
2023-02-05T15:39:52.293Z,102486.16
2023-02-05T15:42:30.734Z,102493.94
2023-02-05T15:44:59.357Z,102496.56
2023-02-05T15:47:29.586Z,102502.66
2023-02-05T15:50:01.867Z,102503.50
2023-02-05T15:52:33.705Z,102503.47
2023-02-05T15:55:11.456Z,102506.91
2023-02-05T15:57:41.185Z,102506.84
2023-02-05T16:00:12.018Z,102512.03
2023-02-05T16:02:45.761Z,102512.91
2023-02-05T16:05:21.849Z,102511.97
2023-02-05T16:07:55.394Z,102518.94
2023-02-05T16:10:26.821Z,102521.50
2023-02-05T16:13:03.678Z,102529.25
2023-02-05T16:15:37.273Z,102532.72
2023-02-05T16:18:12.530Z,102536.16
2023-02-05T16:20:45.899Z,102532.63
2023-02-05T16:23:28.970Z,102543.84
2023-02-05T16:26:03.644Z,102543.00
2023-02-05T16:28:39.573Z,102557.72
2023-02-05T16:31:10.060Z,102552.53
2023-02-05T16:33:45.913Z,102563.78
2023-02-05T16:36:22.007Z,102566.31
2023-02-05T16:38:57.512Z,102579.25
2023-02-05T16:41:30.017Z,102585.31
2023-02-05T16:44:03.685Z,102583.50
2023-02-05T16:46:33.099Z,102580.84
2023-02-05T16:49:03.588Z,102592.13
2023-02-05T16:51:55.180Z,102605.09
2023-02-05T16:54:38.399Z,102605.09
2023-02-05T16:57:12.810Z,102613.75
2023-02-05T16:59:52.659Z,102617.19
2023-02-05T17:02:33.781Z,102617.19
2023-02-05T17:05:03.545Z,102613.75
2023-02-05T17:07:32.582Z,102618.97
2023-02-05T17:10:21.279Z,102629.25
2023-02-05T17:12:57.228Z,102629.25
2023-02-05T17:15:40.046Z,102632.69
2023-02-05T17:18:29.134Z,102634.38
2023-02-05T17:21:22.646Z,102636.06
2023-02-05T17:23:51.915Z,102636.06
2023-02-05T17:26:21.448Z,102644.69
2023-02-05T17:28:54.595Z,102643.81
2023-02-05T17:31:26.512Z,102644.59
2023-02-05T17:33:58.461Z,102658.47
2023-02-05T17:36:27.692Z,102657.59
2023-02-05T17:38:56.368Z,102649.72
2023-02-05T17:41:44.531Z,102655.78
2023-02-05T17:44:14.160Z,102660.97
2023-02-05T17:46:44.832Z,102664.47
2023-02-05T17:49:13.393Z,102673.16
2023-02-05T17:51:42.858Z,102668.84
2023-02-05T17:54:16.319Z,102677.53
2023-02-05T17:56:45.500Z,102672.31
2023-02-05T17:59:17.472Z,102675.75
2023-02-05T18:01:47.812Z,102667.81
2023-02-05T18:04:18.575Z,102666.94
2023-02-05T18:06:49.596Z,102674.69
2023-02-05T18:09:19.839Z,102670.28
2023-02-05T18:11:48.365Z,102671.97
2023-02-05T18:14:16.883Z,102677.88
2023-02-05T18:16:46.558Z,102687.38
2023-02-05T18:19:15.101Z,102701.22
2023-02-05T18:21:45.865Z,102712.41
2023-02-05T18:24:14.958Z,102713.22
2023-02-05T18:26:43.935Z,102709.66
2023-02-05T18:29:12.427Z,102712.28
2023-02-05T18:31:40.998Z,102720.88
2023-02-05T18:34:10.601Z,102718.19
2023-02-05T18:36:39.137Z,102715.50
2023-02-05T18:39:09.890Z,102719.78
2023-02-05T18:41:38.882Z,102723.19
2023-02-05T18:44:07.432Z,102720.50
2023-02-05T18:46:35.844Z,102724.00
2023-02-05T18:49:04.493Z,102718.75
2023-02-05T18:51:34.080Z,102731.75
2023-02-05T18:54:02.750Z,102723.09
2023-02-05T18:56:30.969Z,102723.91
2023-02-05T18:59:02.874Z,102728.19
2023-02-05T19:01:32.330Z,102730.75
2023-02-05T19:04:03.652Z,102740.28
2023-02-05T19:06:34.133Z,102735.00
2023-02-05T19:09:02.848Z,102731.44
2023-02-05T19:11:33.950Z,102735.75
2023-02-05T19:14:05.041Z,102733.94
2023-02-05T19:16:36.475Z,102741.69
2023-02-05T19:19:05.787Z,102737.31
2023-02-05T19:21:36.218Z,102735.56
2023-02-05T19:24:07.246Z,102745.09
2023-02-05T19:26:37.664Z,102741.53
2023-02-05T19:29:08.339Z,102739.78
2023-02-05T19:31:38.268Z,102745.78
2023-02-05T19:34:07.625Z,102753.59
2023-02-05T19:36:38.070Z,102748.41
2023-02-05T19:39:09.814Z,102764.88
2023-02-05T19:41:40.094Z,102763.19
2023-02-05T19:44:10.230Z,102766.66
2023-02-05T19:46:41.862Z,102768.31
2023-02-05T19:49:15.319Z,102767.44
2023-02-05T19:51:48.000Z,102764.78
2023-02-05T19:54:17.232Z,102774.34
2023-02-05T19:56:46.028Z,102779.50
2023-02-05T19:59:16.249Z,102779.50
2023-02-05T20:01:45.536Z,102777.72
2023-02-05T20:04:17.528Z,102782.94
2023-02-05T20:06:48.063Z,102776.78
2023-02-05T20:09:18.012Z,102781.03
2023-02-05T20:11:49.768Z,102777.53
2023-02-05T20:14:18.572Z,102786.22
2023-02-05T20:16:47.373Z,102779.28
2023-02-05T20:19:17.982Z,102781.88
2023-02-05T20:21:48.594Z,102792.34
2023-02-05T20:24:17.558Z,102795.81
2023-02-05T20:26:48.712Z,102798.41
2023-02-05T20:29:35.256Z,102801.03
2023-02-05T20:32:04.125Z,102807.94
2023-02-05T20:34:35.980Z,102812.22
2023-02-05T20:37:09.375Z,102817.44
2023-02-05T20:39:41.775Z,102825.22
2023-02-05T20:42:13.540Z,102826.94
2023-02-05T20:44:43.355Z,102826.06
2023-02-05T20:47:15.529Z,102823.44
2023-02-05T20:49:44.221Z,102819.00
2023-02-05T20:52:14.189Z,102835.38
2023-02-05T20:54:42.979Z,102831.88
2023-02-05T20:57:11.494Z,102837.00
2023-02-05T20:59:40.069Z,102843.94
2023-02-05T21:02:08.850Z,102844.78
2023-02-05T21:04:37.716Z,102842.97
2023-02-05T21:07:05.958Z,102849.03
2023-02-05T21:09:35.818Z,102849.88
2023-02-05T21:12:04.157Z,102861.13
2023-02-05T21:14:32.964Z,102860.25
2023-02-05T21:17:01.516Z,102867.22
2023-02-05T21:19:30.188Z,102860.25
2023-02-05T21:21:59.177Z,102865.47
2023-02-05T21:24:27.863Z,102867.09
2023-02-05T21:26:57.705Z,102864.44
2023-02-05T21:29:26.248Z,102859.19
2023-02-05T21:31:55.540Z,102867.00
2023-02-05T21:34:27.315Z,102863.34
2023-02-05T21:36:57.104Z,102874.44
2023-02-05T21:39:25.985Z,102870.78
2023-02-05T21:41:54.639Z,102880.09
2023-02-05T21:44:25.400Z,102877.34
2023-02-05T21:46:55.228Z,102881.56
2023-02-05T21:49:23.903Z,102884.03
2023-02-05T21:51:53.247Z,102888.28
2023-02-05T21:54:25.467Z,102894.22
2023-02-05T21:56:54.260Z,102907.19
2023-02-05T21:59:24.323Z,102899.28
2023-02-05T22:01:53.119Z,102895.75
2023-02-05T22:04:22.045Z,102906.09
2023-02-05T22:06:52.174Z,102902.66
2023-02-05T22:09:20.710Z,102905.28
2023-02-05T22:11:51.307Z,102913.13
2023-02-05T22:14:19.947Z,102920.09
2023-02-05T22:16:49.498Z,102930.56
2023-02-05T22:19:17.788Z,102924.59
2023-02-05T22:21:46.331Z,102937.63
2023-02-05T22:24:17.231Z,102924.63
2023-02-05T22:26:46.902Z,102924.63
2023-02-05T22:29:18.122Z,102935.03
2023-02-05T22:31:50.088Z,102939.34
2023-02-05T22:34:20.207Z,102946.25
2023-02-05T22:36:48.657Z,102951.38
2023-02-05T22:39:17.238Z,102949.50
2023-02-05T22:41:45.790Z,102952.72
2023-02-05T22:44:14.373Z,102960.28
2023-02-05T22:46:45.273Z,102966.97
2023-02-05T22:49:15.719Z,102968.66
2023-02-05T22:51:45.768Z,102966.06
2023-02-05T22:54:16.041Z,102965.22
2023-02-05T22:56:44.881Z,102963.59
2023-02-05T22:59:13.534Z,102954.06
2023-02-05T23:01:42.272Z,102967.94
2023-02-05T23:04:11.635Z,102962.78
2023-02-05T23:06:42.356Z,102966.31
2023-02-05T23:09:15.116Z,102965.47
2023-02-05T23:11:44.253Z,102963.81
2023-02-05T23:14:14.419Z,102965.59
2023-02-05T23:16:45.274Z,102958.75
2023-02-05T23:19:16.881Z,102967.47
2023-02-05T23:21:45.588Z,102977.06
2023-02-05T23:24:15.615Z,102972.66
2023-02-05T23:26:47.040Z,102976.13
2023-02-05T23:29:16.900Z,102967.47
2023-02-05T23:31:46.014Z,102970.06
2023-02-05T23:34:15.246Z,102971.78
2023-02-05T23:36:43.746Z,102977.84
2023-02-05T23:39:12.330Z,102964.88
2023-02-05T23:41:41.894Z,102983.00
2023-02-05T23:44:14.176Z,102976.84
2023-02-05T23:46:44.012Z,102979.44
2023-02-05T23:49:13.092Z,102976.81
2023-02-05T23:51:42.253Z,102970.66
2023-02-05T23:54:12.417Z,102981.03
2023-02-05T23:56:42.632Z,102980.91
2023-02-05T23:59:13.770Z,102986.94
